Time;durP1;ratioP1;P1;durP2;ratioP2;P2;SDS_P1;SDS_P2;PMS_P1;PMS_P2;Temp;Humidity;BMP_temperature;BMP_pressure;BME280_temperature;BME280_humidity;BME280_pressure;Samples;Min_cycle;Max_cycle;Signal;HPM_P1;HPM_P2
2021/12/15 00:01:13;;;;;;;1.60;0.90;;;;;;;;;;5009387;28;20041;-63
2021/12/15 00:03:38;;;;;;;3.03;1.10;;;;;;;;;;5009101;28;20180;-64
2021/12/15 00:06:11;;;;;;;1.23;0.80;;;;;;;;;;5007820;28;20530;-63
2021/12/15 00:08:37;;;;;;;2.03;0.82;;;;;;;;;;5006087;28;20077;-64
2021/12/15 00:11:03;;;;;;;0.20;0.20;;;;;;;;;;4990691;28;20045;-64
2021/12/15 00:13:29;;;;;;;2.33;0.90;;;;;;;;;;5008777;28;20042;-64
2021/12/15 00:15:55;;;;;;;1.52;0.73;;;;;;;;;;5007313;28;20049;-64
2021/12/15 00:18:20;;;;;;;3.65;1.55;;;;;;;;;;5008830;28;20046;-64
2021/12/15 00:20:46;;;;;;;1.27;0.50;;;;;;;;;;4994266;28;20034;-65
2021/12/15 00:23:12;;;;;;;2.95;1.25;;;;;;;;;;5011344;28;20056;-64
2021/12/15 00:25:39;;;;;;;1.25;0.82;;;;;;;;;;5008546;28;20038;-65
2021/12/15 00:28:05;;;;;;;0.70;0.40;;;;;;;;;;5009514;28;20041;-63
2021/12/15 00:30:32;;;;;;;1.08;0.50;;;;;;;;;;5007902;28;20042;-64
2021/12/15 00:32:58;;;;;;;3.50;0.70;;;;;;;;;;5011534;28;20049;-64
2021/12/15 00:35:24;;;;;;;1.00;0.63;;;;;;;;;;5009631;28;20034;-64
2021/12/15 00:37:51;;;;;;;1.63;0.95;;;;;;;;;;4993439;28;20041;-65
2021/12/15 00:40:18;;;;;;;4.20;1.02;;;;;;;;;;5012652;28;20092;-62
2021/12/15 00:42:44;;;;;;;1.77;0.88;;;;;;;;;;5009782;28;20042;-64
2021/12/15 00:45:10;;;;;;;3.47;0.77;;;;;;;;;;5009926;28;20398;-64
2021/12/15 00:47:36;;;;;;;0.60;0.45;;;;;;;;;;5008725;28;20516;-64
2021/12/15 00:50:06;;;;;;;3.45;1.05;;;;;;;;;;5011670;28;20631;-64
2021/12/15 00:52:36;;;;;;;0.57;0.50;;;;;;;;;;5008939;28;20588;-62
2021/12/15 00:55:03;;;;;;;3.25;1.48;;;;;;;;;;5007987;28;20046;-62
2021/12/15 00:57:29;;;;;;;3.33;1.60;;;;;;;;;;5007742;28;20042;-62
2021/12/15 00:59:55;;;;;;;1.55;0.73;;;;;;;;;;5009332;28;20042;-64
2021/12/15 01:02:21;;;;;;;2.95;0.90;;;;;;;;;;5010068;28;20147;-63
2021/12/15 01:04:47;;;;;;;3.30;1.17;;;;;;;;;;5010134;28;20071;-62
2021/12/15 01:07:13;;;;;;;1.27;0.70;;;;;;;;;;5010650;28;20533;-62
2021/12/15 01:09:44;;;;;;;1.80;0.60;;;;;;;;;;5008035;28;20045;-64
2021/12/15 01:12:24;;;;;;;1.25;0.75;;;;;;;;;;5009004;28;20129;-64
2021/12/15 01:20:09;;;;;;;2.42;1.40;;;;;;;;;;5013365;28;20099;-63
2021/12/15 01:22:36;;;;;;;2.83;0.65;;;;;;;;;;5013115;28;20038;-64
2021/12/15 01:25:09;;;;;;;2.78;1.15;;;;;;;;;;5012835;28;20049;-64
2021/12/15 01:27:35;;;;;;;1.60;0.90;;;;;;;;;;5013471;28;20181;-63
2021/12/15 01:30:03;;;;;;;4.28;1.38;;;;;;;;;;5015001;28;20602;-63
2021/12/15 01:32:29;;;;;;;2.83;0.80;;;;;;;;;;5015097;28;20105;-63
2021/12/15 01:34:55;;;;;;;2.08;0.70;;;;;;;;;;5012936;28;20336;-64
2021/12/15 01:37:21;;;;;;;1.67;1.33;;;;;;;;;;5013251;28;20053;-64
2021/12/15 01:39:46;;;;;;;5.43;1.70;;;;;;;;;;5014162;28;20363;-65
2021/12/15 01:42:13;;;;;;;2.78;1.00;;;;;;;;;;5015625;28;20046;-65
2021/12/15 01:47:23;;;;;;;0.70;0.45;;;;;;;;;;5015481;28;20104;-63
2021/12/15 01:49:51;;;;;;;1.88;1.38;;;;;;;;;;5014449;28;20045;-63
2021/12/15 01:52:17;;;;;;;4.65;1.48;;;;;;;;;;5013885;28;20069;-63
2021/12/15 01:54:44;;;;;;;9.15;2.70;;;;;;;;;;5013055;28;20790;-63
2021/12/15 01:57:11;;;;;;;1.17;0.57;;;;;;;;;;5013654;28;20199;-62
2021/12/15 01:59:38;;;;;;;0.88;0.45;;;;;;;;;;5013597;28;20053;-61
2021/12/15 02:02:04;;;;;;;8.90;2.05;;;;;;;;;;5014621;28;21722;-64
2021/12/15 02:04:30;;;;;;;1.20;1.08;;;;;;;;;;5011728;28;20144;-63
2021/12/15 02:06:57;;;;;;;2.72;1.00;;;;;;;;;;5012578;28;20461;-63
2021/12/15 02:09:51;;;;;;;1.90;1.25;;;;;;;;;;5011283;28;20038;-63
2021/12/15 02:12:18;;;;;;;3.30;1.25;;;;;;;;;;4998984;28;20033;-63
2021/12/15 02:14:44;;;;;;;0.95;0.60;;;;;;;;;;5013266;28;20736;-63
2021/12/15 02:17:10;;;;;;;1.38;0.93;;;;;;;;;;4997216;28;20115;-61
2021/12/15 02:19:36;;;;;;;1.38;0.77;;;;;;;;;;5013616;28;20466;-62
2021/12/15 02:22:02;;;;;;;1.70;0.73;;;;;;;;;;5015173;28;20099;-62
2021/12/15 02:24:28;;;;;;;3.88;1.42;;;;;;;;;;5011227;28;20053;-64
2021/12/15 02:26:59;;;;;;;1.35;0.82;;;;;;;;;;5011146;28;20048;-61
2021/12/15 02:29:25;;;;;;;0.75;0.57;;;;;;;;;;5013126;28;20153;-63
2021/12/15 02:32:46;;;;;;;0.55;0.55;;;;;;;;;;5014874;28;20044;-62
2021/12/15 02:34:57;;;;;;;0.77;0.55;;;;;;;;;;4999816;28;20088;-62
2021/12/15 02:37:23;;;;;;;2.25;0.68;;;;;;;;;;5014005;28;20049;-62
2021/12/15 02:39:59;;;;;;;1.17;1.08;;;;;;;;;;5012078;28;20440;-62
2021/12/15 02:42:27;;;;;;;1.88;0.88;;;;;;;;;;5002675;28;20608;-63
2021/12/15 02:44:54;;;;;;;0.20;0.20;;;;;;;;;;5009603;28;20049;-62
2021/12/15 02:47:29;;;;;;;0.60;0.60;;;;;;;;;;4994180;28;20111;-62
2021/12/15 02:49:57;;;;;;;1.95;1.20;;;;;;;;;;5011743;28;20041;-63
2021/12/15 02:52:23;;;;;;;2.90;1.67;;;;;;;;;;5011704;28;20049;-62
2021/12/15 02:54:49;;;;;;;4.28;0.57;;;;;;;;;;5011311;28;20490;-61
2021/12/15 02:57:16;;;;;;;0.43;0.43;;;;;;;;;;5011357;28;20048;-61
2021/12/15 03:05:20;;;;;;;0.20;0.20;;;;;;;;;;5009638;28;20108;-62
2021/12/15 03:08:02;;;;;;;0.68;0.60;;;;;;;;;;5011127;28;20030;-63
2021/12/15 03:15:58;;;;;;;0.40;0.40;;;;;;;;;;5011351;28;20537;-62
2021/12/15 03:18:25;;;;;;;1.40;0.88;;;;;;;;;;5011340;28;20046;-63
2021/12/15 03:20:57;;;;;;;0.93;0.55;;;;;;;;;;5015516;28;20242;-61
2021/12/15 03:23:31;;;;;;;0.35;0.35;;;;;;;;;;5015431;28;20049;-63
2021/12/15 03:25:58;;;;;;;0.70;0.60;;;;;;;;;;5015786;28;20056;-64
2021/12/15 03:34:10;;;;;;;7.47;1.50;;;;;;;;;;5012909;28;20084;-63
2021/12/15 03:39:29;;;;;;;0.98;0.85;;;;;;;;;;5007600;28;20069;-63
2021/12/15 03:42:02;;;;;;;0.20;0.20;;;;;;;;;;5011853;28;20042;-63
2021/12/15 03:44:44;;;;;;;0.35;0.30;;;;;;;;;;4977670;28;20197;-63
2021/12/15 03:47:13;;;;;;;0.90;0.55;;;;;;;;;;4960822;28;20050;-60
2021/12/15 03:49:39;;;;;;;1.10;0.55;;;;;;;;;;4977108;28;20109;-60
2021/12/15 03:52:06;;;;;;;0.88;0.85;;;;;;;;;;4953954;28;20056;-62
2021/12/15 03:54:32;;;;;;;1.23;1.02;;;;;;;;;;4948688;28;20043;-63
2021/12/15 03:56:58;;;;;;;5.72;1.20;;;;;;;;;;4948489;28;20112;-59
2021/12/15 03:59:25;;;;;;;1.65;1.00;;;;;;;;;;4952901;28;20050;-64
2021/12/15 04:01:51;;;;;;;0.43;0.40;;;;;;;;;;4971123;28;20078;-61
2021/12/15 04:04:17;;;;;;;0.70;0.50;;;;;;;;;;4949925;28;20051;-61
2021/12/15 04:06:46;;;;;;;3.80;1.85;;;;;;;;;;4964903;28;20041;-60
2021/12/15 04:09:13;;;;;;;1.33;0.80;;;;;;;;;;4951610;28;20053;-62
2021/12/15 04:11:38;;;;;;;0.45;0.45;;;;;;;;;;4949917;28;20131;-62
2021/12/15 04:14:08;;;;;;;1.25;0.85;;;;;;;;;;4951320;28;20118;-56
2021/12/15 04:19:01;;;;;;;1.80;1.30;;;;;;;;;;4979071;28;20046;-61
2021/12/15 04:21:27;;;;;;;1.20;1.10;;;;;;;;;;4976060;28;20495;-60
2021/12/15 04:23:54;;;;;;;3.63;1.15;;;;;;;;;;4974980;28;20105;-63
2021/12/15 04:26:20;;;;;;;1.02;0.82;;;;;;;;;;4974683;28;20050;-62
2021/12/15 04:28:47;;;;;;;0.80;0.80;;;;;;;;;;4975896;28;20411;-61
2021/12/15 04:31:16;;;;;;;0.75;0.73;;;;;;;;;;4983940;28;20057;-62
2021/12/15 04:33:44;;;;;;;0.85;0.65;;;;;;;;;;5010427;28;20100;-61
2021/12/15 04:36:11;;;;;;;0.22;0.22;;;;;;;;;;5014791;28;20886;-62
2021/12/15 04:38:37;;;;;;;0.68;0.45;;;;;;;;;;5012432;28;20033;-64
2021/12/15 04:41:05;;;;;;;1.23;0.73;;;;;;;;;;5013318;28;20053;-62
2021/12/15 04:43:34;;;;;;;6.32;1.70;;;;;;;;;;5009520;28;20053;-62
2021/12/15 04:46:00;;;;;;;1.23;0.80;;;;;;;;;;4992409;28;20508;-63
2021/12/15 04:48:26;;;;;;;0.90;0.88;;;;;;;;;;5011362;28;20034;-63
2021/12/15 04:50:52;;;;;;;0.63;0.45;;;;;;;;;;5007991;28;20048;-63
2021/12/15 04:53:18;;;;;;;1.15;0.88;;;;;;;;;;5009587;28;21224;-62
2021/12/15 04:55:44;;;;;;;1.23;0.98;;;;;;;;;;4993831;28;20483;-63
2021/12/15 04:58:11;;;;;;;1.25;1.10;;;;;;;;;;4999185;28;20686;-62
2021/12/15 05:00:42;;;;;;;1.30;0.95;;;;;;;;;;5012758;28;20164;-63
2021/12/15 05:03:08;;;;;;;0.63;0.63;;;;;;;;;;5013569;28;20142;-63
2021/12/15 05:05:35;;;;;;;16.90;1.85;;;;;;;;;;5011452;28;20441;-63
2021/12/15 05:08:01;;;;;;;1.02;0.82;;;;;;;;;;4997811;28;20052;-60
2021/12/15 05:10:28;;;;;;;16.73;1.75;;;;;;;;;;5000979;28;20042;-62
2021/12/15 05:12:54;;;;;;;0.80;0.80;;;;;;;;;;4993252;28;20084;-64
2021/12/15 05:15:19;;;;;;;1.98;1.20;;;;;;;;;;5013891;28;20038;-61
2021/12/15 05:17:46;;;;;;;2.85;1.95;;;;;;;;;;4999385;28;20038;-63
2021/12/15 05:20:11;;;;;;;2.55;1.38;;;;;;;;;;5015399;28;20548;-63
2021/12/15 05:22:38;;;;;;;0.85;0.65;;;;;;;;;;5014965;28;20038;-60
2021/12/15 05:25:05;;;;;;;1.15;1.00;;;;;;;;;;4994913;28;20062;-61
2021/12/15 05:27:31;;;;;;;0.45;0.43;;;;;;;;;;5014345;28;20060;-60
2021/12/15 05:29:57;;;;;;;0.20;0.20;;;;;;;;;;5015202;28;20066;-61
2021/12/15 05:32:23;;;;;;;0.35;0.32;;;;;;;;;;5013736;28;20145;-61
2021/12/15 05:34:51;;;;;;;0.90;0.68;;;;;;;;;;5012802;28;20050;-63
2021/12/15 05:37:19;;;;;;;1.38;1.25;;;;;;;;;;5013199;28;20109;-62
2021/12/15 05:39:45;;;;;;;0.85;0.82;;;;;;;;;;4994890;28;20045;-63
2021/12/15 05:42:11;;;;;;;18.20;1.75;;;;;;;;;;5013025;28;20042;-62
2021/12/15 05:44:37;;;;;;;1.85;1.17;;;;;;;;;;4994131;28;20426;-62
2021/12/15 05:47:04;;;;;;;1.38;1.15;;;;;;;;;;5009142;28;20056;-63
2021/12/15 05:49:30;;;;;;;1.10;1.00;;;;;;;;;;5009915;28;20072;-61
2021/12/15 05:51:56;;;;;;;1.30;1.02;;;;;;;;;;5014193;28;20057;-61
2021/12/15 05:54:23;;;;;;;0.40;0.40;;;;;;;;;;5013859;28;20133;-64
2021/12/15 05:56:49;;;;;;;2.15;1.00;;;;;;;;;;5014402;28;20138;-60
2021/12/15 05:59:15;;;;;;;3.17;2.13;;;;;;;;;;4995760;28;20097;-60
2021/12/15 06:01:41;;;;;;;0.65;0.57;;;;;;;;;;5012216;28;20045;-62
2021/12/15 06:04:07;;;;;;;1.65;1.15;;;;;;;;;;4995723;28;20050;-61
2021/12/15 06:06:33;;;;;;;1.35;1.17;;;;;;;;;;5009959;28;20067;-63
2021/12/15 06:09:00;;;;;;;0.55;0.50;;;;;;;;;;5011885;28;20418;-61
2021/12/15 06:11:26;;;;;;;1.70;1.02;;;;;;;;;;5012257;28;20066;-62
2021/12/15 06:13:53;;;;;;;1.27;1.15;;;;;;;;;;5011867;28;20084;-61
2021/12/15 06:16:19;;;;;;;2.45;1.85;;;;;;;;;;5011922;28;20050;-61
2021/12/15 06:18:48;;;;;;;3.95;2.13;;;;;;;;;;5012641;28;20049;-63
2021/12/15 06:21:15;;;;;;;0.43;0.40;;;;;;;;;;5012170;28;20037;-61
2021/12/15 06:23:41;;;;;;;0.32;0.30;;;;;;;;;;4979936;28;20144;-62
2021/12/15 06:26:07;;;;;;;2.70;0.93;;;;;;;;;;5015187;28;20944;-61
2021/12/15 06:28:33;;;;;;;1.30;1.20;;;;;;;;;;5013504;28;20414;-63
2021/12/15 06:31:00;;;;;;;0.60;0.60;;;;;;;;;;5015145;28;20045;-61
2021/12/15 06:33:27;;;;;;;3.15;1.35;;;;;;;;;;5013716;28;20422;-61
2021/12/15 06:35:54;;;;;;;1.25;1.02;;;;;;;;;;5016806;28;20435;-62
2021/12/15 06:38:21;;;;;;;1.23;0.75;;;;;;;;;;5015414;28;20048;-61
2021/12/15 06:40:47;;;;;;;2.40;1.17;;;;;;;;;;5014509;28;20034;-63
2021/12/15 06:43:13;;;;;;;1.80;1.70;;;;;;;;;;5015972;28;20061;-62
2021/12/15 06:45:52;;;;;;;0.55;0.43;;;;;;;;;;5014981;28;20094;-62
2021/12/15 06:59:15;;;;;;;0.40;0.40;;;;;;;;;;5012738;28;20084;-62
2021/12/15 07:01:42;;;;;;;1.85;1.17;;;;;;;;;;5009753;28;20062;-62
2021/12/15 07:04:07;;;;;;;2.17;1.05;;;;;;;;;;5010345;28;20068;-60
2021/12/15 07:06:33;;;;;;;3.40;1.85;;;;;;;;;;5010546;28;20046;-61
2021/12/15 07:09:00;;;;;;;2.10;1.05;;;;;;;;;;5012871;28;20506;-60
2021/12/15 07:11:25;;;;;;;1.55;1.15;;;;;;;;;;4994811;28;20619;-61
2021/12/15 07:13:51;;;;;;;3.67;2.08;;;;;;;;;;5010932;28;20120;-60
2021/12/15 07:16:19;;;;;;;3.22;2.10;;;;;;;;;;5010596;28;20167;-61
2021/12/15 07:18:53;;;;;;;3.13;2.72;;;;;;;;;;5010802;28;20087;-57
2021/12/15 07:21:21;;;;;;;;;;;;;;;;;;5012699;28;20072;-61
2021/12/15 07:23:48;;;;;;;0.90;0.90;;;;;;;;;;5012006;28;19928;-61
2021/12/15 07:26:14;;;;;;;8.32;3.25;;;;;;;;;;4994126;28;20045;-61
2021/12/15 07:28:40;;;;;;;1.40;0.98;;;;;;;;;;5010196;28;20068;-61
2021/12/15 07:31:06;;;;;;;1.88;1.45;;;;;;;;;;5010824;28;20546;-63
2021/12/15 07:33:32;;;;;;;2.45;1.48;;;;;;;;;;5008795;28;20144;-63
2021/12/15 07:35:59;;;;;;;8.30;2.55;;;;;;;;;;5010323;28;20115;-62
2021/12/15 07:38:25;;;;;;;1.27;0.60;;;;;;;;;;5009625;28;20367;-61
2021/12/15 07:40:51;;;;;;;7.13;1.13;;;;;;;;;;5009585;28;20057;-61
2021/12/15 07:43:24;;;;;;;4.00;1.10;;;;;;;;;;5011816;28;20073;-62
2021/12/15 07:45:52;;;;;;;0.77;0.40;;;;;;;;;;4991922;28;20037;-61
2021/12/15 07:48:19;;;;;;;0.63;0.60;;;;;;;;;;5009870;28;20163;-61
2021/12/15 07:50:46;;;;;;;2.03;1.52;;;;;;;;;;5008706;28;20682;-61
2021/12/15 07:53:13;;;;;;;2.28;0.98;;;;;;;;;;4990444;28;20049;-61
2021/12/15 07:55:39;;;;;;;1.00;0.93;;;;;;;;;;5009149;28;20048;-62
2021/12/15 07:58:07;;;;;;;0.93;0.80;;;;;;;;;;5012868;28;20944;-60
2021/12/15 08:00:33;;;;;;;1.80;0.95;;;;;;;;;;5010028;28;20052;-61
2021/12/15 08:02:59;;;;;;;1.33;0.95;;;;;;;;;;5010357;28;21015;-62
2021/12/15 08:05:25;;;;;;;4.72;1.58;;;;;;;;;;5010825;28;20148;-62
2021/12/15 08:07:51;;;;;;;3.40;2.38;;;;;;;;;;5010495;28;20042;-61
2021/12/15 08:10:17;;;;;;;5.65;2.40;;;;;;;;;;5012335;28;20038;-62
2021/12/15 08:12:43;;;;;;;0.50;0.50;;;;;;;;;;5010958;28;20483;-61
2021/12/15 08:15:10;;;;;;;0.63;0.57;;;;;;;;;;4990606;28;20535;-63
2021/12/15 08:17:37;;;;;;;1.77;1.00;;;;;;;;;;5010509;28;20088;-62
2021/12/15 08:20:04;;;;;;;0.50;0.50;;;;;;;;;;5012670;28;20494;-59
2021/12/15 08:22:30;;;;;;;2.42;0.93;;;;;;;;;;5010671;28;20053;-62
2021/12/15 08:24:56;;;;;;;0.57;0.52;;;;;;;;;;5011589;28;20041;-62
2021/12/15 08:27:22;;;;;;;0.60;0.40;;;;;;;;;;5011231;28;20052;-61
2021/12/15 08:29:48;;;;;;;1.15;0.98;;;;;;;;;;5015470;28;20042;-61
2021/12/15 08:32:13;;;;;;;8.00;3.92;;;;;;;;;;5014920;28;20658;-60
2021/12/15 08:34:39;;;;;;;3.08;1.33;;;;;;;;;;5013686;28;20084;-60
2021/12/15 08:37:06;;;;;;;0.75;0.55;;;;;;;;;;5015280;28;20111;-63
2021/12/15 08:39:32;;;;;;;2.92;1.23;;;;;;;;;;5012315;28;20034;-62
2021/12/15 08:41:58;;;;;;;2.28;1.67;;;;;;;;;;5013662;28;20042;-62
2021/12/15 08:44:24;;;;;;;1.27;1.17;;;;;;;;;;5011697;28;20395;-61
2021/12/15 08:46:50;;;;;;;1.27;0.80;;;;;;;;;;5013628;28;20056;-62
2021/12/15 08:49:18;;;;;;;4.85;0.98;;;;;;;;;;5012563;28;20049;-62
2021/12/15 08:51:45;;;;;;;0.65;0.63;;;;;;;;;;5014794;28;20120;-63
2021/12/15 08:54:14;;;;;;;0.57;0.57;;;;;;;;;;5012451;28;20045;-60
2021/12/15 08:56:41;;;;;;;1.27;0.95;;;;;;;;;;5012679;28;20066;-61
2021/12/15 08:59:07;;;;;;;1.73;1.13;;;;;;;;;;5013389;28;20041;-61
2021/12/15 09:01:33;;;;;;;2.03;1.80;;;;;;;;;;4997495;28;20037;-62
2021/12/15 09:03:59;;;;;;;2.38;1.17;;;;;;;;;;4993915;28;20144;-59
2021/12/15 09:06:25;;;;;;;1.70;1.20;;;;;;;;;;5001557;28;20049;-60
2021/12/15 09:08:51;;;;;;;3.25;2.08;;;;;;;;;;5013931;28;20173;-61
2021/12/15 09:11:19;;;;;;;2.20;1.58;;;;;;;;;;5013185;28;20464;-62
2021/12/15 09:13:49;;;;;;;1.80;1.17;;;;;;;;;;5011614;28;20037;-60
2021/12/15 09:16:15;;;;;;;1.25;1.10;;;;;;;;;;5012817;28;20174;-61
2021/12/15 09:18:42;;;;;;;1.55;1.15;;;;;;;;;;5013799;28;20482;-59
2021/12/15 09:21:10;;;;;;;3.25;2.05;;;;;;;;;;5014632;28;20515;-60
2021/12/15 09:23:36;;;;;;;2.20;1.27;;;;;;;;;;5012249;28;20050;-63
2021/12/15 09:26:04;;;;;;;4.30;1.83;;;;;;;;;;5012332;28;20056;-60
2021/12/15 09:28:32;;;;;;;1.55;1.35;;;;;;;;;;5012189;28;20045;-61
2021/12/15 09:30:59;;;;;;;3.28;1.50;;;;;;;;;;5011128;28;20537;-62
2021/12/15 09:33:29;;;;;;;25.05;2.22;;;;;;;;;;5010925;28;20402;-60
2021/12/15 09:35:56;;;;;;;1.88;1.48;;;;;;;;;;5014353;28;20598;-61
2021/12/15 09:38:22;;;;;;;4.85;2.65;;;;;;;;;;5011843;28;20036;-62
2021/12/15 09:40:49;;;;;;;1.80;1.33;;;;;;;;;;5013594;28;20038;-61
2021/12/15 09:43:15;;;;;;;1.38;0.85;;;;;;;;;;5013341;28;20076;-62
2021/12/15 09:45:49;;;;;;;3.13;1.92;;;;;;;;;;5012457;28;20124;-61
2021/12/15 10:05:03;;;;;;;1.52;1.30;;;;;;;;;;4972829;28;20052;-60
2021/12/15 10:18:44;;;;;;;1.50;1.25;;;;;;;;;;4972643;28;20104;-60
2021/12/15 10:21:39;;;;;;;2.92;2.08;;;;;;;;;;4968778;28;20043;-60
2021/12/15 10:24:10;;;;;;;3.08;1.85;;;;;;;;;;4962727;28;20055;-62
2021/12/15 10:26:36;;;;;;;3.08;2.35;;;;;;;;;;4972654;28;20050;-61
2021/12/15 10:29:11;;;;;;;1.85;1.65;;;;;;;;;;4975039;28;20034;-61
2021/12/15 10:31:37;;;;;;;2.30;1.40;;;;;;;;;;4974699;28;20041;-61
2021/12/15 10:34:05;;;;;;;2.17;1.73;;;;;;;;;;4973022;28;20038;-62
2021/12/15 10:36:35;;;;;;;1.02;0.85;;;;;;;;;;4973077;28;20490;-60
2021/12/15 10:39:08;;;;;;;2.40;1.42;;;;;;;;;;4970245;28;20444;-61
2021/12/15 10:41:38;;;;;;;4.63;2.70;;;;;;;;;;4973087;28;20476;-60
2021/12/15 10:44:06;;;;;;;0.47;0.47;;;;;;;;;;4971696;28;20046;-61
2021/12/15 10:46:35;;;;;;;1.17;1.00;;;;;;;;;;4983826;28;20057;-61
2021/12/15 10:49:04;;;;;;;2.33;1.80;;;;;;;;;;5012096;28;20119;-59
2021/12/15 10:51:35;;;;;;;2.55;1.25;;;;;;;;;;5011071;28;20087;-61
2021/12/15 10:54:11;;;;;;;0.70;0.35;;;;;;;;;;5011433;28;20061;-58
2021/12/15 10:56:39;;;;;;;4.40;2.00;;;;;;;;;;5010120;28;20767;-58
2021/12/15 10:59:07;;;;;;;1.83;0.90;;;;;;;;;;5013138;28;20066;-61
2021/12/15 11:01:36;;;;;;;2.90;1.65;;;;;;;;;;5010718;28;20587;-59
2021/12/15 11:04:04;;;;;;;1.08;0.90;;;;;;;;;;5009703;28;20055;-60
2021/12/15 11:06:33;;;;;;;1.90;1.73;;;;;;;;;;5009341;28;20021;-61
2021/12/15 11:09:12;;;;;;;0.77;0.68;;;;;;;;;;5010129;28;20051;-62
2021/12/15 11:11:38;;;;;;;1.10;0.75;;;;;;;;;;5011772;28;20072;-59
2021/12/15 11:14:24;;;;;;;2.58;1.73;;;;;;;;;;5010242;28;20038;-59
2021/12/15 11:17:09;;;;;;;4.82;1.95;;;;;;;;;;5007620;28;20045;-60
2021/12/15 11:19:39;;;;;;;12.68;4.13;;;;;;;;;;5010619;28;20033;-60
2021/12/15 11:22:24;;;;;;;4.75;3.45;;;;;;;;;;5011252;28;20765;-61
2021/12/15 11:24:49;;;;;;;2.70;1.17;;;;;;;;;;5008909;28;20497;-62
2021/12/15 11:27:16;;;;;;;3.30;2.30;;;;;;;;;;5009897;28;20128;-62
2021/12/15 11:29:43;;;;;;;3.20;1.75;;;;;;;;;;5012288;28;20047;-62
2021/12/15 11:32:29;;;;;;;1.73;1.35;;;;;;;;;;4992428;28;20045;-61
2021/12/15 11:35:03;;;;;;;1.60;1.10;;;;;;;;;;5009220;28;20133;-59
2021/12/15 11:37:48;;;;;;;1.17;0.95;;;;;;;;;;5008773;28;20049;-62
2021/12/15 11:40:15;;;;;;;1.73;1.33;;;;;;;;;;5011359;28;20030;-61
2021/12/15 11:42:42;;;;;;;15.18;3.22;;;;;;;;;;5009705;28;20037;-62
2021/12/15 11:45:09;;;;;;;2.47;1.42;;;;;;;;;;5010655;28;20054;-62
2021/12/15 11:47:36;;;;;;;2.05;1.80;;;;;;;;;;5009321;28;20046;-61
2021/12/15 11:50:20;;;;;;;1.25;0.63;;;;;;;;;;5009923;28;20056;-62
2021/12/15 11:52:47;;;;;;;2.00;1.52;;;;;;;;;;5009478;28;20049;-59
2021/12/15 11:55:28;;;;;;;0.50;0.50;;;;;;;;;;5010621;28;20063;-61
2021/12/15 11:57:55;;;;;;;1.67;1.08;;;;;;;;;;5011691;28;20041;-60
2021/12/15 12:00:22;;;;;;;2.53;1.67;;;;;;;;;;4991040;28;20037;-60
2021/12/15 12:02:54;;;;;;;1.73;0.65;;;;;;;;;;5010136;28;20076;-61
2021/12/15 12:05:22;;;;;;;3.05;1.33;;;;;;;;;;5008920;28;20480;-60
2021/12/15 12:07:52;;;;;;;26.48;3.17;;;;;;;;;;5010650;28;20042;-62
2021/12/15 12:10:22;;;;;;;1.33;0.90;;;;;;;;;;5010157;28;20042;-60
2021/12/15 12:12:53;;;;;;;4.93;3.13;;;;;;;;;;5008948;28;20137;-61
2021/12/15 12:15:23;;;;;;;0.93;0.73;;;;;;;;;;5008068;28;20033;-62
2021/12/15 12:17:50;;;;;;;1.38;1.27;;;;;;;;;;5009256;28;20049;-60
2021/12/15 12:20:23;;;;;;;1.98;1.40;;;;;;;;;;5010294;28;20030;-61
2021/12/15 12:22:50;;;;;;;2.63;2.03;;;;;;;;;;5007861;28;20041;-61
2021/12/15 12:25:19;;;;;;;2.17;1.58;;;;;;;;;;5009991;28;20042;-60
2021/12/15 12:27:46;;;;;;;4.43;1.83;;;;;;;;;;5009238;28;20049;-59
2021/12/15 12:30:18;;;;;;;1.35;0.63;;;;;;;;;;5009836;28;20068;-60
2021/12/15 12:32:44;;;;;;;2.00;1.90;;;;;;;;;;5008030;28;21359;-62
2021/12/15 12:35:10;;;;;;;2.83;2.00;;;;;;;;;;5010463;28;20128;-60
2021/12/15 12:37:37;;;;;;;4.95;1.90;;;;;;;;;;5007214;28;20733;-61
2021/12/15 12:40:16;;;;;;;3.90;2.38;;;;;;;;;;5010342;28;20092;-61
2021/12/15 12:42:42;;;;;;;9.77;2.65;;;;;;;;;;4989365;28;20635;-60
2021/12/15 12:45:13;;;;;;;1.60;1.10;;;;;;;;;;5008676;28;20053;-61
2021/12/15 12:48:30;;;;;;;3.10;1.73;;;;;;;;;;4997074;28;20137;-62
2021/12/15 13:01:10;;;;;;;0.93;0.70;;;;;;;;;;5008768;28;20050;-60
2021/12/15 13:03:37;;;;;;;0.93;0.85;;;;;;;;;;4974121;28;20053;-61
2021/12/15 13:06:02;;;;;;;2.83;2.17;;;;;;;;;;5009316;28;20417;-61
2021/12/15 13:08:45;;;;;;;2.05;1.20;;;;;;;;;;5007605;28;20394;-62
2021/12/15 13:11:15;;;;;;;1.27;0.55;;;;;;;;;;5008012;28;20159;-60
2021/12/15 13:13:47;;;;;;;2.60;1.60;;;;;;;;;;5008023;28;20046;-62
2021/12/15 13:16:21;;;;;;;4.40;1.85;;;;;;;;;;5012409;28;20129;-63
2021/12/15 13:18:47;;;;;;;4.15;3.08;;;;;;;;;;5010969;28;20041;-62
2021/12/15 13:21:16;;;;;;;2.35;1.40;;;;;;;;;;5012643;28;20104;-64
2021/12/15 13:23:58;;;;;;;0.65;0.45;;;;;;;;;;5013688;28;20171;-64
2021/12/15 13:29:27;;;;;;;1.07;0.60;;;;;;;;;;5015198;28;20057;-64
2021/12/15 13:31:55;;;;;;;3.45;1.90;;;;;;;;;;5012915;28;20117;-64
2021/12/15 13:34:34;;;;;;;7.43;3.42;;;;;;;;;;5016745;28;20053;-64
2021/12/15 13:37:00;;;;;;;7.53;3.85;;;;;;;;;;5014130;28;20180;-62
2021/12/15 13:39:41;;;;;;;0.75;0.75;;;;;;;;;;4996386;28;20536;-63
2021/12/15 13:42:13;;;;;;;3.17;2.92;;;;;;;;;;5015405;28;20149;-64
2021/12/15 13:44:41;;;;;;;2.15;1.85;;;;;;;;;;5019911;28;20042;-64
2021/12/15 13:47:10;;;;;;;28.55;3.75;;;;;;;;;;5021679;28;20776;-63
2021/12/15 13:49:54;;;;;;;1.80;1.02;;;;;;;;;;5011955;28;20041;-64
2021/12/15 13:52:40;;;;;;;0.88;0.47;;;;;;;;;;5011263;28;20037;-64
2021/12/15 13:55:25;;;;;;;0.90;0.70;;;;;;;;;;5011950;28;20045;-64
2021/12/15 13:57:53;;;;;;;3.40;2.78;;;;;;;;;;5010656;28;20116;-63
2021/12/15 14:00:22;;;;;;;1.40;1.30;;;;;;;;;;5010506;28;20046;-62
2021/12/15 14:03:00;;;;;;;1.90;1.50;;;;;;;;;;5010860;28;20046;-62
2021/12/15 14:05:27;;;;;;;6.93;2.83;;;;;;;;;;5010614;28;20517;-62
2021/12/15 14:08:03;;;;;;;1.60;1.15;;;;;;;;;;5010493;28;20069;-62
2021/12/15 14:10:29;;;;;;;0.98;0.77;;;;;;;;;;5010526;28;20080;-62
2021/12/15 14:12:57;;;;;;;2.45;1.40;;;;;;;;;;5011488;28;20126;-62
2021/12/15 14:15:25;;;;;;;1.35;1.23;;;;;;;;;;5010047;28;20043;-62
2021/12/15 14:18:14;;;;;;;4.38;1.83;;;;;;;;;;5009621;28;20049;-62
2021/12/15 14:20:44;;;;;;;2.72;2.15;;;;;;;;;;5000201;28;20046;-62
2021/12/15 14:23:14;;;;;;;3.05;1.95;;;;;;;;;;5011550;28;20042;-62
2021/12/15 14:25:41;;;;;;;8.25;3.08;;;;;;;;;;5009930;28;20500;-64
2021/12/15 14:28:06;;;;;;;2.40;2.20;;;;;;;;;;5009493;28;20046;-62
2021/12/15 14:30:32;;;;;;;1.42;1.33;;;;;;;;;;5010713;28;20075;-63
2021/12/15 14:32:58;;;;;;;1.20;0.50;;;;;;;;;;5010914;28;20042;-63
2021/12/15 14:35:24;;;;;;;1.30;1.20;;;;;;;;;;4991189;28;20060;-64
2021/12/15 14:37:50;;;;;;;5.00;2.88;;;;;;;;;;5011544;28;20037;-62
2021/12/15 14:40:18;;;;;;;2.38;1.85;;;;;;;;;;5010544;28;20049;-62
2021/12/15 14:42:45;;;;;;;5.68;1.40;;;;;;;;;;5009679;28;20044;-62
2021/12/15 14:45:11;;;;;;;1.75;1.38;;;;;;;;;;5010389;28;20112;-63
2021/12/15 14:47:42;;;;;;;8.43;1.58;;;;;;;;;;5010496;28;20046;-61
2021/12/15 14:50:13;;;;;;;2.17;1.40;;;;;;;;;;5010667;28;20044;-62
2021/12/15 14:52:40;;;;;;;1.80;1.13;;;;;;;;;;5010291;28;20045;-61
2021/12/15 14:55:09;;;;;;;1.70;1.17;;;;;;;;;;5010255;28;20053;-61
2021/12/15 14:57:35;;;;;;;9.52;2.30;;;;;;;;;;5009279;28;20121;-62
2021/12/15 15:00:07;;;;;;;13.63;3.00;;;;;;;;;;5010071;28;20159;-61
2021/12/15 15:02:34;;;;;;;2.95;2.22;;;;;;;;;;4991226;28;20038;-61
2021/12/15 15:05:03;;;;;;;2.25;1.42;;;;;;;;;;4992220;28;20049;-61
2021/12/15 15:07:37;;;;;;;6.47;2.25;;;;;;;;;;5010734;28;20243;-61
2021/12/15 15:10:05;;;;;;;2.85;1.48;;;;;;;;;;5010444;28;20049;-60
2021/12/15 15:12:34;;;;;;;7.65;1.38;;;;;;;;;;5007209;28;20034;-61
2021/12/15 15:15:02;;;;;;;4.00;2.97;;;;;;;;;;5010987;28;20050;-61
2021/12/15 15:17:36;;;;;;;1.05;0.90;;;;;;;;;;5009730;28;20037;-60
2021/12/15 15:20:13;;;;;;;5.22;3.88;;;;;;;;;;5011776;28;20041;-61
2021/12/15 15:22:39;;;;;;;3.00;2.22;;;;;;;;;;5011686;28;20138;-62
2021/12/15 15:25:06;;;;;;;2.88;1.40;;;;;;;;;;5011431;28;21973;-61
2021/12/15 15:27:32;;;;;;;1.45;1.35;;;;;;;;;;5011136;28;20099;-61
2021/12/15 15:30:02;;;;;;;1.73;1.60;;;;;;;;;;5013425;28;20045;-60
2021/12/15 15:32:29;;;;;;;2.85;1.42;;;;;;;;;;5010540;28;20152;-62
2021/12/15 15:34:56;;;;;;;2.20;1.77;;;;;;;;;;5013223;28;20065;-60
2021/12/15 15:37:22;;;;;;;5.22;0.93;;;;;;;;;;5012653;28;20048;-63
2021/12/15 15:39:59;;;;;;;2.40;1.63;;;;;;;;;;5012218;28;20030;-62
2021/12/15 15:42:26;;;;;;;2.00;1.60;;;;;;;;;;5013019;28;20045;-61
2021/12/15 15:44:52;;;;;;;3.53;1.88;;;;;;;;;;5012132;28;20073;-62
2021/12/15 15:47:19;;;;;;;3.00;1.95;;;;;;;;;;5012469;28;20413;-62
2021/12/15 15:49:53;;;;;;;0.75;0.70;;;;;;;;;;4994578;28;20483;-62
2021/12/15 15:52:19;;;;;;;2.78;1.75;;;;;;;;;;5010734;28;20077;-61
2021/12/15 15:54:45;;;;;;;2.00;0.95;;;;;;;;;;5012818;28;20723;-61
2021/12/15 15:57:11;;;;;;;5.22;1.70;;;;;;;;;;5011124;28;20083;-62
2021/12/15 15:59:39;;;;;;;1.48;1.13;;;;;;;;;;5012683;28;20036;-63
2021/12/15 16:02:05;;;;;;;2.63;1.27;;;;;;;;;;5011374;28;20033;-59
2021/12/15 16:04:31;;;;;;;5.00;3.13;;;;;;;;;;5011375;28;20057;-62
2021/12/15 16:06:57;;;;;;;5.35;3.45;;;;;;;;;;4992350;28;20416;-61
2021/12/15 16:09:24;;;;;;;2.92;2.20;;;;;;;;;;5011341;28;20131;-63
2021/12/15 16:11:52;;;;;;;1.63;1.50;;;;;;;;;;4992935;28;20038;-60
2021/12/15 16:14:18;;;;;;;2.47;1.15;;;;;;;;;;5010819;28;20042;-60